Aeroporto :
LOGIN :

Iscrizione | Disclaimer

   EN    FR    IT 

 










Sommario :    VFR   VFR Marginale   IFR   IFR Intensivo   IFR Molto Intensivo
Visibilità : 
Base nubi : 
>= 8 km
>= 3000ft
5 / 8 km
1000 / 3000 ft
1500m / 5 km
500 / 1000 ft
800 / 1500m
200 / 500 ft
< 800m
< 200 ft
Simboli :   Temporali  Nebbia  Neve Forte  Precipitazioni Forti  Vento > 20 kt
SIGMETs :   Varie  Temporali  Ghiacco  Turbolenza  Onda orograficha  Ceneri Vulcaniche






- Altitudine del aeroporto : 2595 ft
- Codice IATA : SLM


LESA - Salamanca Matacan

ULTIMO METAR :
  • 171230Z 27017KT 9999 BKN012 10/07 Q1012

METARs OBSOLETI :
  • 171200Z 25013KT 9999 BKN009 08/07 Q1012
  • 171130Z 24012KT 9999 BKN008 08/07 Q1013
  • 171100Z 24014KT 9999 -RA SCT009 BKN014 08/07 Q1013
  • 171030Z 25013KT 9999 BKN008 07/06 Q1013
  • 171000Z 23010KT 9999 RA BKN007 07/06 Q1013
  • 170930Z 25009KT 210V280 8000 RA BKN007 07/06 Q1013

TAF TAF LESA
Valido dal 17 a 12 ore il 18 a 12 ore UTC


171100Z 1712/1812 24012KT 9999 SCT030 BKN050 TX10/1715Z TN01/1806Z
PROB30
TEMPO 1712/1720 27015G25KT
BECMG 1719/1721 30010KT
PROB40
TEMPO 1712/1719 4000 RA BR BKN007
PROB40
TEMPO 1723/1812 3000 BR BKN010
PROB30
TEMPO 1802/1810 0300 FG VV001



MetMap, La meteo Aeronautica in un colpo d'occhio ! - Copyright ORBIFLY Dicembre 2007 - Disclaimer

ORBIFLY MET'MAP TEAM :

Programmazione e sviluppo : Alexandra Zaïnal
Concezione e sviluppo : Baudouin d'Aumeries
Co-Programmazione e sviluppo : Marc-Olivier Méhu
Supporto tecnico e logistico : Manuel Goepfert
Aiuto per la traduzione : Arnaldo La Scala

Contatto : metmap@orbifly.com




FONTI E CREDITI :

   NOAA